createdAt,value
2018-03-29T00:01:02.266Z,5.60
2018-03-29T00:03:30.457Z,5.50
2018-03-29T00:05:58.518Z,5.50
2018-03-29T00:08:25.931Z,5.50
2018-03-29T00:10:53.374Z,5.50
2018-03-29T00:13:20.777Z,5.50
2018-03-29T00:15:48.202Z,5.50
2018-03-29T00:18:15.630Z,5.40
2018-03-29T00:20:43.042Z,5.40
2018-03-29T00:23:10.469Z,5.40
2018-03-29T00:25:37.896Z,5.30
2018-03-29T00:28:06.072Z,5.20
2018-03-29T00:30:33.502Z,5.20
2018-03-29T00:33:00.918Z,5.10
2018-03-29T00:35:28.392Z,5.10
2018-03-29T00:37:55.746Z,5.00
2018-03-29T00:40:23.917Z,5.00
2018-03-29T00:42:53.021Z,5.00
2018-03-29T00:45:20.444Z,5.00
2018-03-29T00:47:47.877Z,5.00
2018-03-29T00:50:16.052Z,4.90
2018-03-29T00:52:44.232Z,4.80
2018-03-29T00:55:11.654Z,4.80
2018-03-29T00:57:39.078Z,4.80
2018-03-29T01:00:07.282Z,4.70
2018-03-29T01:02:34.681Z,4.70
2018-03-29T01:05:02.101Z,4.60
2018-03-29T01:07:30.295Z,4.70
2018-03-29T01:09:58.465Z,4.60
2018-03-29T01:12:26.679Z,4.60
2018-03-29T01:14:54.868Z,4.60
2018-03-29T01:17:23.194Z,4.60
2018-03-29T01:19:50.602Z,4.50
2018-03-29T01:22:18.782Z,4.50
2018-03-29T01:24:46.958Z,4.50
2018-03-29T01:27:14.394Z,4.50
2018-03-29T01:29:41.794Z,4.50
2018-03-29T01:32:09.318Z,4.50
2018-03-29T01:34:36.761Z,4.50
2018-03-29T01:37:05.060Z,4.50
2018-03-29T01:39:32.466Z,4.50
2018-03-29T01:41:59.869Z,4.50
2018-03-29T01:44:28.040Z,4.50
2018-03-29T01:46:55.479Z,4.40
2018-03-29T01:49:23.802Z,4.40
2018-03-29T01:51:51.226Z,4.40
2018-03-29T01:54:18.646Z,4.40
2018-03-29T01:56:46.046Z,4.40
2018-03-29T01:59:13.476Z,4.40
2018-03-29T02:01:40.886Z,4.40
2018-03-29T02:04:08.298Z,4.40
2018-03-29T02:06:35.741Z,4.40
2018-03-29T02:09:03.162Z,4.40
2018-03-29T02:11:30.596Z,4.40
2018-03-29T02:13:58.034Z,4.40
2018-03-29T02:16:25.506Z,4.40
2018-03-29T02:18:52.927Z,4.40
2018-03-29T02:21:20.334Z,4.40
2018-03-29T02:23:47.746Z,4.40
2018-03-29T02:26:15.155Z,4.30
2018-03-29T02:28:42.561Z,4.30
2018-03-29T02:31:09.994Z,4.30
2018-03-29T02:33:37.399Z,4.40
2018-03-29T02:36:04.826Z,4.30
2018-03-29T02:38:32.243Z,4.30
2018-03-29T02:40:59.649Z,4.30
2018-03-29T02:43:27.831Z,4.30
2018-03-29T02:45:56.017Z,4.30
2018-03-29T02:48:25.107Z,4.30
2018-03-29T02:50:52.515Z,4.30
2018-03-29T02:53:19.940Z,4.30
2018-03-29T02:55:48.127Z,4.30
2018-03-29T02:58:15.538Z,4.30
2018-03-29T03:00:42.962Z,4.30
2018-03-29T03:03:10.370Z,4.30
2018-03-29T03:05:37.803Z,4.30
2018-03-29T03:08:05.204Z,4.40
2018-03-29T03:10:32.614Z,4.40
2018-03-29T03:13:00.026Z,4.40
2018-03-29T03:15:28.214Z,4.40
2018-03-29T03:17:55.613Z,4.40
2018-03-29T03:20:23.028Z,4.40
2018-03-29T03:22:51.430Z,4.40
2018-03-29T03:25:19.609Z,4.40
2018-03-29T03:27:47.832Z,4.40
2018-03-29T03:30:15.191Z,4.40
2018-03-29T03:32:42.589Z,4.30
2018-03-29T03:35:10.006Z,4.30
2018-03-29T03:37:37.452Z,4.30
2018-03-29T03:40:04.866Z,4.30
2018-03-29T03:42:32.264Z,4.20
2018-03-29T03:44:59.682Z,4.20
2018-03-29T03:47:27.863Z,4.20
2018-03-29T03:49:55.789Z,4.20
2018-03-29T03:52:23.189Z,4.20
2018-03-29T03:54:50.594Z,4.30
2018-03-29T03:57:17.998Z,4.30
2018-03-29T03:59:45.418Z,4.30
2018-03-29T04:02:13.601Z,4.30
2018-03-29T04:04:41.037Z,4.30
2018-03-29T04:07:08.454Z,4.30
2018-03-29T04:09:35.870Z,4.30
2018-03-29T04:12:03.290Z,4.40
2018-03-29T04:14:30.702Z,4.40
2018-03-29T04:16:58.163Z,4.40
2018-03-29T04:19:26.225Z,4.40
2018-03-29T04:21:53.641Z,4.40
2018-03-29T04:24:21.095Z,4.40
2018-03-29T04:26:48.502Z,4.50
2018-03-29T04:29:16.702Z,4.50
2018-03-29T04:31:44.101Z,4.50
2018-03-29T04:34:11.538Z,4.50
2018-03-29T04:36:39.022Z,4.50
2018-03-29T04:39:09.246Z,4.50
2018-03-29T04:41:36.654Z,4.50
2018-03-29T04:44:04.081Z,4.50
2018-03-29T04:46:31.537Z,4.50
2018-03-29T04:48:58.954Z,4.60
2018-03-29T04:51:26.812Z,4.50
2018-03-29T04:53:54.234Z,4.50
2018-03-29T04:56:22.411Z,4.50
2018-03-29T04:58:49.820Z,4.50
2018-03-29T05:01:17.263Z,4.50
2018-03-29T05:03:45.509Z,4.40
2018-03-29T05:06:12.931Z,4.40
2018-03-29T05:08:40.372Z,4.40
2018-03-29T05:11:07.786Z,4.40
2018-03-29T05:13:35.220Z,4.40
2018-03-29T05:16:03.386Z,4.40
2018-03-29T05:18:30.823Z,4.30
2018-03-29T05:20:58.210Z,4.30
2018-03-29T05:23:25.622Z,4.20
2018-03-29T05:25:53.059Z,4.20
2018-03-29T05:28:20.467Z,4.20
2018-03-29T05:30:47.963Z,4.20
2018-03-29T05:33:15.379Z,4.20
2018-03-29T05:35:43.578Z,4.10
2018-03-29T05:38:10.999Z,4.10
2018-03-29T05:40:38.421Z,4.10
2018-03-29T05:43:05.833Z,4.10
2018-03-29T05:45:33.257Z,4.20
2018-03-29T05:48:00.672Z,4.20
2018-03-29T05:50:28.092Z,4.20
2018-03-29T05:52:56.278Z,4.20
2018-03-29T05:55:23.693Z,4.20
2018-03-29T05:57:51.102Z,4.30
2018-03-29T06:00:19.282Z,4.30
2018-03-29T06:02:46.707Z,4.30
2018-03-29T06:05:14.149Z,4.30
2018-03-29T06:07:43.299Z,4.40
2018-03-29T06:10:10.739Z,4.30
2018-03-29T06:12:38.146Z,4.40
2018-03-29T06:15:12.154Z,4.40
2018-03-29T06:17:42.037Z,4.50
2018-03-29T06:20:10.186Z,4.50
2018-03-29T06:22:38.666Z,4.50
2018-03-29T06:25:06.163Z,4.50
2018-03-29T06:27:33.606Z,4.60
2018-03-29T06:30:01.016Z,4.70
2018-03-29T06:32:29.387Z,4.70
2018-03-29T06:34:58.490Z,4.70
2018-03-29T06:37:26.670Z,4.80
2018-03-29T06:39:54.094Z,4.80
2018-03-29T06:42:21.503Z,4.80
2018-03-29T06:44:49.676Z,4.80
2018-03-29T06:47:17.110Z,4.80
2018-03-29T06:49:44.556Z,4.90
2018-03-29T06:52:12.075Z,4.90
2018-03-29T06:54:39.483Z,4.90
2018-03-29T06:57:07.674Z,5.10
2018-03-29T06:59:35.105Z,5.00
2018-03-29T07:02:02.578Z,5.10
2018-03-29T07:04:29.997Z,5.10
2018-03-29T07:06:57.443Z,5.20
2018-03-29T07:09:25.641Z,5.20
2018-03-29T07:11:53.114Z,5.20
2018-03-29T07:14:20.527Z,5.20
2018-03-29T07:16:47.939Z,5.30
2018-03-29T07:19:15.354Z,5.30
2018-03-29T07:21:42.821Z,5.40
2018-03-29T07:24:10.234Z,5.40
2018-03-29T07:26:38.398Z,5.50
2018-03-29T07:29:05.817Z,5.40
2018-03-29T07:31:33.247Z,5.40
2018-03-29T07:34:01.429Z,5.50
2018-03-29T07:36:29.792Z,5.50
2018-03-29T07:38:57.208Z,5.60
2018-03-29T07:41:25.720Z,5.60
2018-03-29T07:43:53.210Z,5.60
2018-03-29T07:46:20.643Z,5.70
2018-03-29T07:48:48.063Z,5.70
2018-03-29T07:51:15.476Z,5.80
2018-03-29T07:53:42.913Z,5.80
2018-03-29T07:56:10.360Z,5.80
2018-03-29T07:58:37.769Z,5.80
2018-03-29T08:01:05.950Z,5.90
2018-03-29T08:03:34.136Z,5.90
2018-03-29T08:06:02.323Z,5.90
2018-03-29T08:08:31.157Z,6.00
2018-03-29T08:10:58.554Z,5.90
2018-03-29T08:13:25.986Z,6.00
2018-03-29T08:15:53.393Z,6.00
2018-03-29T08:18:20.829Z,6.00
2018-03-29T08:20:48.253Z,6.00
2018-03-29T08:23:16.446Z,6.10
2018-03-29T08:25:44.625Z,6.10
2018-03-29T08:28:12.039Z,6.10
2018-03-29T08:30:39.481Z,6.10
2018-03-29T08:33:07.708Z,6.20
2018-03-29T08:35:35.844Z,6.30
2018-03-29T08:38:04.030Z,6.30
2018-03-29T08:40:31.465Z,6.30
2018-03-29T08:42:58.870Z,6.40
2018-03-29T08:45:27.066Z,6.40
2018-03-29T08:47:55.279Z,6.50
2018-03-29T08:50:22.691Z,6.40
2018-03-29T08:52:50.102Z,6.50
2018-03-29T08:55:17.528Z,6.50
2018-03-29T08:57:44.950Z,6.50
2018-03-29T09:00:12.395Z,6.40
2018-03-29T09:02:40.558Z,6.40
2018-03-29T09:05:08.746Z,6.50
2018-03-29T09:07:36.172Z,6.40
2018-03-29T09:10:03.581Z,6.50
2018-03-29T09:12:32.489Z,6.60
2018-03-29T09:15:01.590Z,6.70
2018-03-29T09:17:29.789Z,6.80
2018-03-29T09:19:57.989Z,6.80
2018-03-29T09:22:25.669Z,6.80
2018-03-29T09:24:53.119Z,6.80
2018-03-29T09:27:21.328Z,6.80
2018-03-29T09:29:48.796Z,6.70
2018-03-29T09:32:16.207Z,6.80
2018-03-29T09:34:43.619Z,6.80
2018-03-29T09:37:11.048Z,6.90
2018-03-29T09:39:38.464Z,7.00
2018-03-29T09:42:05.878Z,7.00
2018-03-29T09:44:33.290Z,7.00
2018-03-29T09:47:00.697Z,7.00
2018-03-29T09:49:28.111Z,7.20
2018-03-29T09:51:56.321Z,7.10
2018-03-29T09:54:23.739Z,7.00
2018-03-29T09:56:51.160Z,7.00
2018-03-29T09:59:18.576Z,7.00
2018-03-29T10:01:46.027Z,7.00
2018-03-29T10:04:13.425Z,7.10
2018-03-29T10:06:41.653Z,7.10
2018-03-29T10:09:09.054Z,7.10
2018-03-29T10:11:36.463Z,7.20
2018-03-29T10:14:03.883Z,7.20
2018-03-29T10:16:31.327Z,7.20
2018-03-29T10:18:58.734Z,7.20
2018-03-29T10:21:26.160Z,7.10
2018-03-29T10:23:53.617Z,7.10
2018-03-29T10:26:21.035Z,6.90
2018-03-29T10:28:48.451Z,6.80
2018-03-29T10:31:15.865Z,6.70
2018-03-29T10:33:43.324Z,6.70
2018-03-29T10:36:10.769Z,6.70
2018-03-29T10:38:38.202Z,6.80
2018-03-29T10:41:05.662Z,6.90
2018-03-29T10:43:34.167Z,7.00
2018-03-29T10:46:03.335Z,7.20
2018-03-29T10:48:30.767Z,7.20
2018-03-29T10:50:58.194Z,7.40
2018-03-29T10:53:25.652Z,7.60
2018-03-29T10:55:53.095Z,7.70
2018-03-29T10:58:20.575Z,7.80
2018-03-29T11:00:47.987Z,7.90
2018-03-29T11:03:15.476Z,7.90
2018-03-29T11:05:42.886Z,7.90
2018-03-29T11:08:10.326Z,7.80
2018-03-29T11:10:37.759Z,7.80
2018-03-29T11:13:05.190Z,7.80
2018-03-29T11:15:32.591Z,7.80
2018-03-29T11:18:00.812Z,7.70
2018-03-29T11:20:28.983Z,7.70
2018-03-29T11:22:57.245Z,7.70
2018-03-29T11:25:24.664Z,7.60
2018-03-29T11:27:52.078Z,7.60
2018-03-29T11:30:19.509Z,7.60
2018-03-29T11:32:46.943Z,7.60
2018-03-29T11:35:15.171Z,7.50
2018-03-29T11:37:42.599Z,7.50
2018-03-29T11:40:10.902Z,7.40
2018-03-29T11:42:38.557Z,7.40
2018-03-29T11:45:12.636Z,7.50
2018-03-29T11:47:40.077Z,7.40
2018-03-29T11:50:07.516Z,7.40
2018-03-29T11:52:35.710Z,7.50
2018-03-29T11:55:03.118Z,7.50
2018-03-29T11:57:30.582Z,7.60
2018-03-29T11:59:58.080Z,7.80
2018-03-29T12:02:25.463Z,8.00
2018-03-29T12:04:53.698Z,8.30
2018-03-29T12:07:21.110Z,8.30
2018-03-29T12:09:49.291Z,8.40
2018-03-29T12:12:16.699Z,8.40
2018-03-29T12:14:44.146Z,8.40
2018-03-29T12:17:12.354Z,8.00
2018-03-29T12:19:40.550Z,7.90
2018-03-29T12:22:07.982Z,7.90
2018-03-29T12:24:36.171Z,7.70
2018-03-29T12:27:03.768Z,7.70
2018-03-29T12:29:31.209Z,7.60
2018-03-29T12:31:58.650Z,7.50
2018-03-29T12:34:26.080Z,7.40
2018-03-29T12:36:53.510Z,7.40
2018-03-29T12:39:21.012Z,7.40
2018-03-29T12:41:48.434Z,7.40
2018-03-29T12:44:15.862Z,7.50
2018-03-29T12:46:43.368Z,7.50
2018-03-29T12:49:10.769Z,7.60
2018-03-29T12:51:38.957Z,7.90
2018-03-29T12:54:07.136Z,8.00
2018-03-29T12:56:47.938Z,8.20
2018-03-29T12:59:15.358Z,8.20
2018-03-29T13:01:42.784Z,8.40
2018-03-29T13:04:11.066Z,8.70
2018-03-29T13:06:39.259Z,9.00
2018-03-29T13:09:06.688Z,9.00
2018-03-29T13:11:36.539Z,8.70
2018-03-29T13:14:03.930Z,8.70
2018-03-29T13:16:31.361Z,8.60
2018-03-29T13:18:58.786Z,8.50
2018-03-29T13:21:26.239Z,8.40
2018-03-29T13:23:53.682Z,8.30
2018-03-29T13:26:21.850Z,8.00
2018-03-29T13:28:50.038Z,7.90
2018-03-29T13:31:18.219Z,7.70
2018-03-29T13:33:46.403Z,7.50
2018-03-29T13:36:13.815Z,7.50
2018-03-29T13:38:41.269Z,7.50
2018-03-29T13:41:08.690Z,7.40
2018-03-29T13:43:37.040Z,7.50
2018-03-29T13:46:04.450Z,7.70
2018-03-29T13:48:31.864Z,7.70
2018-03-29T13:50:59.292Z,7.60
2018-03-29T13:53:26.728Z,7.40
2018-03-29T13:55:54.133Z,7.20
2018-03-29T13:58:21.639Z,7.10
2018-03-29T14:00:49.827Z,7.30
2018-03-29T14:03:17.248Z,7.30
2018-03-29T14:05:44.661Z,7.30
2018-03-29T14:08:13.634Z,7.60
2018-03-29T14:10:41.835Z,7.90
2018-03-29T14:13:09.286Z,7.90
2018-03-29T14:15:37.498Z,8.60
2018-03-29T14:18:04.914Z,9.60
2018-03-29T14:20:32.372Z,10.00
2018-03-29T14:22:59.808Z,10.10
2018-03-29T14:25:27.986Z,12.50
2018-03-29T14:27:56.196Z,13.30
2018-03-29T14:30:23.640Z,13.20
2018-03-29T14:32:51.139Z,13.00
2018-03-29T14:35:18.560Z,12.20
2018-03-29T14:37:46.742Z,10.90
2018-03-29T14:40:14.963Z,10.40
2018-03-29T14:42:43.165Z,10.10
2018-03-29T14:45:10.572Z,10.10
2018-03-29T14:47:38.223Z,9.80
2018-03-29T14:50:05.686Z,9.50
2018-03-29T14:52:33.115Z,9.20
2018-03-29T14:55:01.268Z,8.70
2018-03-29T14:57:28.683Z,8.60
2018-03-29T14:59:56.135Z,8.70
2018-03-29T15:02:24.294Z,8.90
2018-03-29T15:04:52.500Z,9.10
2018-03-29T15:07:20.686Z,9.10
2018-03-29T15:09:48.169Z,9.10
2018-03-29T15:12:16.334Z,9.30
2018-03-29T15:14:44.580Z,10.70
2018-03-29T15:17:12.206Z,10.70
2018-03-29T15:19:40.389Z,14.70
2018-03-29T15:22:09.516Z,16.20
2018-03-29T15:24:37.034Z,16.20
2018-03-29T15:27:04.418Z,17.30
2018-03-29T15:29:32.676Z,17.90
2018-03-29T15:32:00.132Z,17.80
2018-03-29T15:34:27.542Z,17.50
2018-03-29T15:36:54.936Z,16.90
2018-03-29T15:39:22.419Z,15.80
2018-03-29T15:41:49.882Z,14.40
2018-03-29T15:44:17.322Z,12.70
2018-03-29T15:46:45.621Z,11.10
2018-03-29T15:49:13.799Z,10.70
2018-03-29T15:51:42.007Z,10.50
2018-03-29T15:54:10.274Z,10.10
2018-03-29T15:56:39.378Z,9.70
2018-03-29T15:59:07.577Z,9.30
2018-03-29T16:01:35.005Z,9.20
2018-03-29T16:04:02.410Z,8.90
2018-03-29T16:06:29.818Z,8.70
2018-03-29T16:08:57.238Z,8.50
2018-03-29T16:11:25.447Z,8.10
2018-03-29T16:13:52.890Z,8.10
2018-03-29T16:16:21.089Z,8.00
2018-03-29T16:18:49.260Z,7.90
2018-03-29T16:21:17.454Z,8.00
2018-03-29T16:23:45.656Z,8.20
2018-03-29T16:26:13.136Z,8.20
2018-03-29T16:28:41.318Z,9.40
2018-03-29T16:31:08.748Z,9.40
2018-03-29T16:33:36.936Z,10.90
2018-03-29T16:36:04.362Z,10.90
2018-03-29T16:38:31.775Z,11.40
2018-03-29T16:40:59.956Z,12.10
2018-03-29T16:43:27.383Z,12.10
2018-03-29T16:45:54.890Z,12.00
2018-03-29T16:48:22.315Z,11.80
2018-03-29T16:50:49.734Z,11.80
2018-03-29T16:53:17.926Z,11.40
2018-03-29T16:55:46.135Z,10.70
2018-03-29T16:58:13.578Z,10.60
2018-03-29T17:00:41.020Z,10.00
2018-03-29T17:03:08.438Z,9.50
2018-03-29T17:05:35.903Z,9.00
2018-03-29T17:08:03.306Z,8.50
2018-03-29T17:10:30.781Z,8.30
2018-03-29T17:12:58.166Z,8.00
2018-03-29T17:15:25.580Z,7.90
2018-03-29T17:17:52.993Z,7.70
2018-03-29T17:20:20.407Z,7.60
2018-03-29T17:22:47.844Z,7.50
2018-03-29T17:25:15.255Z,7.40
2018-03-29T17:27:42.661Z,7.30
2018-03-29T17:30:10.121Z,7.20
2018-03-29T17:32:37.555Z,7.10
2018-03-29T17:35:05.732Z,7.00
2018-03-29T17:37:33.150Z,7.00
2018-03-29T17:40:01.334Z,7.00
2018-03-29T17:42:28.755Z,6.90
2018-03-29T17:44:56.185Z,7.00
2018-03-29T17:47:23.610Z,6.90
2018-03-29T17:49:51.026Z,6.90
2018-03-29T17:52:18.453Z,6.80
2018-03-29T17:54:45.871Z,6.80
2018-03-29T17:57:13.320Z,6.70
2018-03-29T17:59:40.727Z,6.70
2018-03-29T18:02:08.913Z,6.60
2018-03-29T18:04:36.326Z,6.60
2018-03-29T18:07:03.772Z,6.70
2018-03-29T18:09:31.182Z,6.70
2018-03-29T18:11:58.642Z,6.70
2018-03-29T18:14:26.070Z,6.70
2018-03-29T18:16:53.540Z,6.60
2018-03-29T18:19:21.701Z,6.60
2018-03-29T18:21:49.904Z,6.60
2018-03-29T18:24:17.330Z,6.60
2018-03-29T18:26:44.788Z,6.60
2018-03-29T18:29:13.439Z,6.60
2018-03-29T18:31:42.550Z,6.60
2018-03-29T18:34:10.014Z,6.60
2018-03-29T18:36:37.457Z,6.60
2018-03-29T18:39:04.913Z,6.60
2018-03-29T18:41:32.323Z,6.50
2018-03-29T18:43:59.785Z,6.50
2018-03-29T18:46:27.970Z,6.40
2018-03-29T18:48:55.381Z,6.40
2018-03-29T18:51:22.817Z,6.40
2018-03-29T18:53:50.240Z,6.30
2018-03-29T18:56:17.660Z,6.30
2018-03-29T18:58:45.087Z,6.30
2018-03-29T19:01:13.997Z,6.20
2018-03-29T19:03:43.110Z,6.20
2018-03-29T19:06:11.341Z,6.20
2018-03-29T19:08:38.772Z,6.20
2018-03-29T19:11:06.974Z,6.10
2018-03-29T19:13:34.447Z,6.10
2018-03-29T19:16:01.870Z,6.00
2018-03-29T19:18:29.297Z,5.90
2018-03-29T19:20:56.802Z,5.90
2018-03-29T19:23:24.217Z,5.80
2018-03-29T19:25:51.642Z,5.80
2018-03-29T19:28:19.085Z,5.80
2018-03-29T19:30:46.506Z,5.70
2018-03-29T19:33:13.953Z,5.70
2018-03-29T19:35:41.436Z,5.70
2018-03-29T19:38:08.922Z,5.60
2018-03-29T19:40:38.146Z,5.60
2018-03-29T19:43:05.635Z,5.50
2018-03-29T19:45:33.066Z,5.50
2018-03-29T19:48:01.257Z,5.50
2018-03-29T19:50:29.451Z,5.40
2018-03-29T19:52:57.653Z,5.40
2018-03-29T19:55:25.062Z,5.40
2018-03-29T19:57:52.599Z,5.40
2018-03-29T20:00:20.016Z,5.40
2018-03-29T20:02:48.221Z,5.40
2018-03-29T20:05:15.658Z,5.30
2018-03-29T20:07:43.145Z,5.30
2018-03-29T20:10:11.341Z,5.10
2018-03-29T20:12:39.514Z,5.10
2018-03-29T20:15:07.725Z,5.10
2018-03-29T20:17:35.146Z,5.10
2018-03-29T20:20:02.606Z,5.10
2018-03-29T20:22:30.100Z,5.10
2018-03-29T20:24:57.469Z,5.00
2018-03-29T20:27:25.668Z,5.00
2018-03-29T20:29:53.853Z,4.90
2018-03-29T20:32:22.073Z,4.80
2018-03-29T20:34:49.486Z,4.80
2018-03-29T20:37:16.914Z,4.80
2018-03-29T20:39:46.030Z,4.70
2018-03-29T20:42:13.472Z,4.70
2018-03-29T20:44:40.912Z,4.70
2018-03-29T20:47:09.102Z,4.60
2018-03-29T20:49:37.281Z,4.60
2018-03-29T20:52:05.467Z,4.60
2018-03-29T20:54:32.881Z,4.60
2018-03-29T20:57:00.316Z,4.60
2018-03-29T20:59:28.537Z,4.50
2018-03-29T21:01:55.999Z,4.50
2018-03-29T21:04:24.175Z,4.50
2018-03-29T21:06:51.660Z,4.50
2018-03-29T21:09:19.083Z,4.50
2018-03-29T21:11:48.006Z,4.40
2018-03-29T21:14:16.590Z,4.30
2018-03-29T21:16:45.707Z,4.20
2018-03-29T21:19:13.163Z,4.20
2018-03-29T21:21:41.437Z,4.10
2018-03-29T21:24:08.879Z,4.10
2018-03-29T21:26:36.430Z,4.00
2018-03-29T21:29:03.899Z,4.10
2018-03-29T21:31:31.286Z,4.10
2018-03-29T21:33:58.707Z,4.10
2018-03-29T21:36:26.896Z,4.00
2018-03-29T21:38:54.334Z,4.00
2018-03-29T21:41:21.776Z,4.10
2018-03-29T21:43:49.189Z,4.10
2018-03-29T21:46:17.398Z,4.10
2018-03-29T21:48:46.498Z,4.10
2018-03-29T21:51:13.914Z,4.00
2018-03-29T21:53:41.362Z,4.10
2018-03-29T21:56:08.778Z,4.10
2018-03-29T21:58:36.187Z,4.10
2018-03-29T22:01:03.622Z,4.00
2018-03-29T22:03:31.037Z,3.90
2018-03-29T22:05:59.021Z,3.90
2018-03-29T22:08:26.462Z,3.90
2018-03-29T22:10:53.914Z,3.80
2018-03-29T22:13:21.334Z,3.80
2018-03-29T22:15:48.764Z,3.70
2018-03-29T22:18:17.143Z,3.70
2018-03-29T22:20:45.335Z,3.80
2018-03-29T22:23:13.593Z,3.80
2018-03-29T22:25:41.030Z,3.80
2018-03-29T22:28:08.521Z,3.80
2018-03-29T22:30:35.956Z,3.80
2018-03-29T22:33:03.374Z,3.80
2018-03-29T22:35:30.798Z,3.80
2018-03-29T22:37:58.237Z,3.80
2018-03-29T22:40:25.670Z,3.80
2018-03-29T22:42:53.114Z,3.80
2018-03-29T22:45:20.506Z,3.70
2018-03-29T22:47:47.969Z,3.70
2018-03-29T22:50:15.402Z,3.70
2018-03-29T22:52:42.836Z,3.60
2018-03-29T22:55:10.250Z,3.60
2018-03-29T22:57:37.679Z,3.60
2018-03-29T23:00:05.867Z,3.50
2018-03-29T23:02:33.325Z,3.50
2018-03-29T23:05:00.732Z,3.60
2018-03-29T23:07:28.170Z,3.60
2018-03-29T23:09:56.376Z,3.40
2018-03-29T23:12:23.814Z,3.40
2018-03-29T23:14:52.010Z,3.40
2018-03-29T23:17:20.220Z,3.40
2018-03-29T23:19:49.183Z,3.40
2018-03-29T23:22:18.318Z,3.30
2018-03-29T23:24:45.776Z,3.40
2018-03-29T23:27:13.987Z,3.40
2018-03-29T23:29:41.433Z,3.40
2018-03-29T23:32:09.615Z,3.30
2018-03-29T23:34:37.798Z,3.40
2018-03-29T23:37:05.239Z,3.30
2018-03-29T23:39:32.660Z,3.30
2018-03-29T23:42:00.104Z,3.30
2018-03-29T23:44:28.308Z,3.30
2018-03-29T23:46:55.738Z,3.30
2018-03-29T23:49:23.171Z,3.20
2018-03-29T23:51:50.655Z,3.20
2018-03-29T23:54:19.018Z,3.20
2018-03-29T23:56:46.432Z,3.10
2018-03-29T23:59:13.901Z,3.10
